sensor_id;sensor_type;location;lat;lon;timestamp;P1;durP1;ratioP1;P2;durP2;ratioP2
21206;SDS011;10761;48.532;8.026;2023-07-13T00:01:12;4.78;;;1.00;;
21206;SDS011;10761;48.532;8.026;2023-07-13T00:03:38;3.65;;;1.15;;
21206;SDS011;10761;48.532;8.026;2023-07-13T00:06:06;3.92;;;0.95;;
21206;SDS011;10761;48.532;8.026;2023-07-13T00:08:33;2.67;;;1.05;;
21206;SDS011;10761;48.532;8.026;2023-07-13T00:11:00;2.70;;;0.90;;
21206;SDS011;10761;48.532;8.026;2023-07-13T00:13:26;1.98;;;0.75;;
21206;SDS011;10761;48.532;8.026;2023-07-13T00:15:52;2.03;;;1.23;;
21206;SDS011;10761;48.532;8.026;2023-07-13T00:18:19;2.10;;;1.10;;
21206;SDS011;10761;48.532;8.026;2023-07-13T00:20:45;2.35;;;1.08;;
21206;SDS011;10761;48.532;8.026;2023-07-13T00:23:10;2.78;;;1.10;;
21206;SDS011;10761;48.532;8.026;2023-07-13T00:25:36;3.33;;;1.00;;
21206;SDS011;10761;48.532;8.026;2023-07-13T00:28:02;4.78;;;1.40;;
21206;SDS011;10761;48.532;8.026;2023-07-13T00:30:28;2.28;;;1.10;;
21206;SDS011;10761;48.532;8.026;2023-07-13T00:32:53;10.70;;;1.50;;
21206;SDS011;10761;48.532;8.026;2023-07-13T00:35:19;3.55;;;1.20;;
21206;SDS011;10761;48.532;8.026;2023-07-13T00:37:45;3.50;;;1.02;;
21206;SDS011;10761;48.532;8.026;2023-07-13T00:40:11;6.00;;;1.10;;
21206;SDS011;10761;48.532;8.026;2023-07-13T00:42:38;7.45;;;1.35;;
21206;SDS011;10761;48.532;8.026;2023-07-13T00:45:06;2.88;;;0.82;;
21206;SDS011;10761;48.532;8.026;2023-07-13T00:47:53;5.13;;;0.90;;
21206;SDS011;10761;48.532;8.026;2023-07-13T00:50:20;8.43;;;1.10;;
21206;SDS011;10761;48.532;8.026;2023-07-13T00:52:48;6.68;;;1.00;;
21206;SDS011;10761;48.532;8.026;2023-07-13T00:55:18;3.05;;;1.30;;
21206;SDS011;10761;48.532;8.026;2023-07-13T00:57:46;3.80;;;1.23;;
21206;SDS011;10761;48.532;8.026;2023-07-13T01:00:12;3.85;;;1.10;;
21206;SDS011;10761;48.532;8.026;2023-07-13T01:02:39;2.50;;;1.10;;
21206;SDS011;10761;48.532;8.026;2023-07-13T01:05:08;3.20;;;0.98;;
21206;SDS011;10761;48.532;8.026;2023-07-13T01:07:35;5.43;;;0.95;;
21206;SDS011;10761;48.532;8.026;2023-07-13T01:10:01;3.88;;;1.20;;
21206;SDS011;10761;48.532;8.026;2023-07-13T01:12:28;5.00;;;1.20;;
21206;SDS011;10761;48.532;8.026;2023-07-13T01:15:01;2.85;;;1.38;;
21206;SDS011;10761;48.532;8.026;2023-07-13T01:17:27;3.50;;;1.00;;
21206;SDS011;10761;48.532;8.026;2023-07-13T01:19:54;5.13;;;1.20;;
21206;SDS011;10761;48.532;8.026;2023-07-13T01:22:20;2.88;;;1.20;;
21206;SDS011;10761;48.532;8.026;2023-07-13T01:24:51;5.67;;;1.30;;
21206;SDS011;10761;48.532;8.026;2023-07-13T01:27:23;5.68;;;1.10;;
21206;SDS011;10761;48.532;8.026;2023-07-13T01:29:50;2.88;;;1.10;;
21206;SDS011;10761;48.532;8.026;2023-07-13T01:32:19;4.40;;;1.15;;
21206;SDS011;10761;48.532;8.026;2023-07-13T01:34:49;2.45;;;1.20;;
21206;SDS011;10761;48.532;8.026;2023-07-13T01:37:15;3.38;;;1.10;;
21206;SDS011;10761;48.532;8.026;2023-07-13T01:39:41;5.25;;;1.30;;
21206;SDS011;10761;48.532;8.026;2023-07-13T01:42:07;3.33;;;1.20;;
21206;SDS011;10761;48.532;8.026;2023-07-13T01:44:33;7.43;;;1.30;;
21206;SDS011;10761;48.532;8.026;2023-07-13T01:47:01;4.88;;;1.38;;
21206;SDS011;10761;48.532;8.026;2023-07-13T01:49:27;3.75;;;1.13;;
21206;SDS011;10761;48.532;8.026;2023-07-13T01:51:53;2.25;;;1.23;;
21206;SDS011;10761;48.532;8.026;2023-07-13T01:54:18;7.70;;;1.35;;
21206;SDS011;10761;48.532;8.026;2023-07-13T01:56:44;7.35;;;1.20;;
21206;SDS011;10761;48.532;8.026;2023-07-13T01:59:10;2.85;;;1.10;;
21206;SDS011;10761;48.532;8.026;2023-07-13T02:01:35;4.18;;;1.30;;
21206;SDS011;10761;48.532;8.026;2023-07-13T02:04:01;2.58;;;1.20;;
21206;SDS011;10761;48.532;8.026;2023-07-13T02:06:27;4.88;;;1.42;;
21206;SDS011;10761;48.532;8.026;2023-07-13T02:08:53;4.82;;;1.20;;
21206;SDS011;10761;48.532;8.026;2023-07-13T02:11:19;2.45;;;1.20;;
21206;SDS011;10761;48.532;8.026;2023-07-13T02:13:44;5.15;;;1.15;;
21206;SDS011;10761;48.532;8.026;2023-07-13T02:16:10;3.92;;;1.50;;
21206;SDS011;10761;48.532;8.026;2023-07-13T02:18:36;6.55;;;1.30;;
21206;SDS011;10761;48.532;8.026;2023-07-13T02:21:02;4.93;;;1.42;;
21206;SDS011;10761;48.532;8.026;2023-07-13T02:23:28;7.20;;;1.48;;
21206;SDS011;10761;48.532;8.026;2023-07-13T02:25:57;8.82;;;1.67;;
21206;SDS011;10761;48.532;8.026;2023-07-13T02:28:24;7.13;;;1.60;;
21206;SDS011;10761;48.532;8.026;2023-07-13T02:30:49;4.65;;;1.40;;
21206;SDS011;10761;48.532;8.026;2023-07-13T02:33:15;5.10;;;1.30;;
21206;SDS011;10761;48.532;8.026;2023-07-13T02:35:41;6.25;;;1.30;;
21206;SDS011;10761;48.532;8.026;2023-07-13T02:38:07;5.40;;;1.65;;
21206;SDS011;10761;48.532;8.026;2023-07-13T02:40:33;6.00;;;1.50;;
21206;SDS011;10761;48.532;8.026;2023-07-13T02:43:00;6.22;;;1.40;;
21206;SDS011;10761;48.532;8.026;2023-07-13T02:45:26;7.93;;;1.50;;
21206;SDS011;10761;48.532;8.026;2023-07-13T02:47:52;8.05;;;1.65;;
21206;SDS011;10761;48.532;8.026;2023-07-13T02:50:18;5.15;;;1.70;;
21206;SDS011;10761;48.532;8.026;2023-07-13T02:52:43;6.00;;;1.40;;
21206;SDS011;10761;48.532;8.026;2023-07-13T02:55:09;6.05;;;1.40;;
21206;SDS011;10761;48.532;8.026;2023-07-13T02:57:35;5.97;;;1.40;;
21206;SDS011;10761;48.532;8.026;2023-07-13T03:00:01;6.32;;;1.65;;
21206;SDS011;10761;48.532;8.026;2023-07-13T03:02:30;3.35;;;1.33;;
21206;SDS011;10761;48.532;8.026;2023-07-13T03:04:57;3.05;;;1.23;;
21206;SDS011;10761;48.532;8.026;2023-07-13T03:07:22;4.35;;;1.25;;
21206;SDS011;10761;48.532;8.026;2023-07-13T03:09:48;3.92;;;1.35;;
21206;SDS011;10761;48.532;8.026;2023-07-13T03:12:13;3.95;;;1.30;;
21206;SDS011;10761;48.532;8.026;2023-07-13T03:14:39;3.63;;;1.60;;
21206;SDS011;10761;48.532;8.026;2023-07-13T03:17:05;3.97;;;1.23;;
21206;SDS011;10761;48.532;8.026;2023-07-13T03:19:30;6.38;;;1.58;;
21206;SDS011;10761;48.532;8.026;2023-07-13T03:21:56;4.13;;;1.42;;
21206;SDS011;10761;48.532;8.026;2023-07-13T03:24:21;5.15;;;1.70;;
21206;SDS011;10761;48.532;8.026;2023-07-13T03:26:50;5.35;;;1.35;;
21206;SDS011;10761;48.532;8.026;2023-07-13T03:29:16;4.80;;;1.40;;
21206;SDS011;10761;48.532;8.026;2023-07-13T03:31:42;4.90;;;1.60;;
21206;SDS011;10761;48.532;8.026;2023-07-13T03:34:07;3.75;;;1.60;;
21206;SDS011;10761;48.532;8.026;2023-07-13T03:36:33;3.78;;;1.30;;
21206;SDS011;10761;48.532;8.026;2023-07-13T03:38:59;3.00;;;1.45;;
21206;SDS011;10761;48.532;8.026;2023-07-13T03:41:26;2.78;;;1.30;;
21206;SDS011;10761;48.532;8.026;2023-07-13T03:43:52;7.97;;;1.70;;
21206;SDS011;10761;48.532;8.026;2023-07-13T03:46:18;5.60;;;1.70;;
21206;SDS011;10761;48.532;8.026;2023-07-13T03:48:45;4.53;;;1.25;;
21206;SDS011;10761;48.532;8.026;2023-07-13T03:51:12;3.45;;;1.50;;
21206;SDS011;10761;48.532;8.026;2023-07-13T03:53:40;5.95;;;1.88;;
21206;SDS011;10761;48.532;8.026;2023-07-13T03:56:07;3.30;;;1.45;;
21206;SDS011;10761;48.532;8.026;2023-07-13T03:58:34;4.90;;;1.80;;
21206;SDS011;10761;48.532;8.026;2023-07-13T04:01:04;5.00;;;1.50;;
21206;SDS011;10761;48.532;8.026;2023-07-13T04:03:30;8.02;;;1.70;;
21206;SDS011;10761;48.532;8.026;2023-07-13T04:06:01;3.75;;;1.35;;
21206;SDS011;10761;48.532;8.026;2023-07-13T04:08:28;4.18;;;1.60;;
21206;SDS011;10761;48.532;8.026;2023-07-13T04:10:56;3.65;;;1.40;;
21206;SDS011;10761;48.532;8.026;2023-07-13T04:13:22;6.35;;;1.50;;
21206;SDS011;10761;48.532;8.026;2023-07-13T04:15:48;5.05;;;1.60;;
21206;SDS011;10761;48.532;8.026;2023-07-13T04:18:14;6.95;;;1.45;;
21206;SDS011;10761;48.532;8.026;2023-07-13T04:20:39;5.80;;;1.50;;
21206;SDS011;10761;48.532;8.026;2023-07-13T04:23:05;6.57;;;1.80;;
21206;SDS011;10761;48.532;8.026;2023-07-13T04:25:31;8.25;;;1.70;;
21206;SDS011;10761;48.532;8.026;2023-07-13T04:27:56;3.65;;;1.40;;
21206;SDS011;10761;48.532;8.026;2023-07-13T04:30:22;4.85;;;1.50;;
21206;SDS011;10761;48.532;8.026;2023-07-13T04:32:50;7.57;;;1.25;;
21206;SDS011;10761;48.532;8.026;2023-07-13T04:35:17;4.72;;;1.58;;
21206;SDS011;10761;48.532;8.026;2023-07-13T04:37:45;4.70;;;1.45;;
21206;SDS011;10761;48.532;8.026;2023-07-13T04:40:11;6.93;;;1.52;;
21206;SDS011;10761;48.532;8.026;2023-07-13T04:42:37;4.82;;;1.65;;
21206;SDS011;10761;48.532;8.026;2023-07-13T04:45:04;7.38;;;1.45;;
21206;SDS011;10761;48.532;8.026;2023-07-13T04:47:31;6.32;;;1.35;;
21206;SDS011;10761;48.532;8.026;2023-07-13T04:49:57;4.93;;;1.70;;
21206;SDS011;10761;48.532;8.026;2023-07-13T04:52:22;5.63;;;1.40;;
21206;SDS011;10761;48.532;8.026;2023-07-13T04:54:48;5.32;;;1.50;;
21206;SDS011;10761;48.532;8.026;2023-07-13T04:57:14;3.25;;;1.45;;
21206;SDS011;10761;48.532;8.026;2023-07-13T04:59:40;3.33;;;1.42;;
21206;SDS011;10761;48.532;8.026;2023-07-13T05:02:05;4.18;;;1.58;;
21206;SDS011;10761;48.532;8.026;2023-07-13T05:04:31;6.57;;;1.60;;
21206;SDS011;10761;48.532;8.026;2023-07-13T05:06:57;5.53;;;1.40;;
21206;SDS011;10761;48.532;8.026;2023-07-13T05:09:23;4.80;;;1.65;;
21206;SDS011;10761;48.532;8.026;2023-07-13T05:11:49;6.88;;;1.63;;
21206;SDS011;10761;48.532;8.026;2023-07-13T05:14:14;4.50;;;1.42;;
21206;SDS011;10761;48.532;8.026;2023-07-13T05:16:41;4.32;;;1.38;;
21206;SDS011;10761;48.532;8.026;2023-07-13T05:19:07;8.70;;;1.63;;
21206;SDS011;10761;48.532;8.026;2023-07-13T05:21:34;5.90;;;1.83;;
21206;SDS011;10761;48.532;8.026;2023-07-13T05:23:59;4.22;;;1.52;;
21206;SDS011;10761;48.532;8.026;2023-07-13T05:26:25;3.75;;;1.48;;
21206;SDS011;10761;48.532;8.026;2023-07-13T05:28:50;5.05;;;1.70;;
21206;SDS011;10761;48.532;8.026;2023-07-13T05:31:16;6.00;;;1.55;;
21206;SDS011;10761;48.532;8.026;2023-07-13T05:33:42;7.97;;;1.55;;
21206;SDS011;10761;48.532;8.026;2023-07-13T05:36:07;4.57;;;1.52;;
21206;SDS011;10761;48.532;8.026;2023-07-13T05:38:33;5.28;;;1.20;;
21206;SDS011;10761;48.532;8.026;2023-07-13T05:40:59;4.88;;;1.63;;
21206;SDS011;10761;48.532;8.026;2023-07-13T05:43:25;2.30;;;1.30;;
21206;SDS011;10761;48.532;8.026;2023-07-13T05:45:52;4.18;;;1.52;;
21206;SDS011;10761;48.532;8.026;2023-07-13T05:48:19;5.82;;;1.50;;
21206;SDS011;10761;48.532;8.026;2023-07-13T05:50:44;5.32;;;1.30;;
21206;SDS011;10761;48.532;8.026;2023-07-13T05:53:11;4.38;;;1.50;;
21206;SDS011;10761;48.532;8.026;2023-07-13T05:55:40;4.28;;;1.20;;
21206;SDS011;10761;48.532;8.026;2023-07-13T05:58:12;7.20;;;1.55;;
21206;SDS011;10761;48.532;8.026;2023-07-13T06:00:38;5.75;;;1.33;;
21206;SDS011;10761;48.532;8.026;2023-07-13T06:03:04;5.85;;;1.40;;
21206;SDS011;10761;48.532;8.026;2023-07-13T06:05:31;5.75;;;1.52;;
21206;SDS011;10761;48.532;8.026;2023-07-13T06:07:58;3.53;;;1.48;;
21206;SDS011;10761;48.532;8.026;2023-07-13T06:10:24;5.72;;;1.75;;
21206;SDS011;10761;48.532;8.026;2023-07-13T06:12:49;4.03;;;1.35;;
21206;SDS011;10761;48.532;8.026;2023-07-13T06:15:15;4.20;;;1.30;;
21206;SDS011;10761;48.532;8.026;2023-07-13T06:17:41;7.38;;;1.95;;
21206;SDS011;10761;48.532;8.026;2023-07-13T06:20:06;2.72;;;1.50;;
21206;SDS011;10761;48.532;8.026;2023-07-13T06:22:32;5.93;;;1.52;;
21206;SDS011;10761;48.532;8.026;2023-07-13T06:24:58;8.68;;;1.70;;
21206;SDS011;10761;48.532;8.026;2023-07-13T06:27:23;6.40;;;1.90;;
21206;SDS011;10761;48.532;8.026;2023-07-13T06:29:49;5.35;;;2.10;;
21206;SDS011;10761;48.532;8.026;2023-07-13T06:32:14;6.40;;;1.92;;
21206;SDS011;10761;48.532;8.026;2023-07-13T06:34:40;8.27;;;1.80;;
21206;SDS011;10761;48.532;8.026;2023-07-13T06:37:06;7.22;;;1.65;;
21206;SDS011;10761;48.532;8.026;2023-07-13T06:39:32;4.63;;;1.90;;
21206;SDS011;10761;48.532;8.026;2023-07-13T06:41:57;5.63;;;1.70;;
21206;SDS011;10761;48.532;8.026;2023-07-13T06:44:23;6.53;;;2.05;;
21206;SDS011;10761;48.532;8.026;2023-07-13T06:46:49;8.13;;;1.90;;
21206;SDS011;10761;48.532;8.026;2023-07-13T06:49:14;6.00;;;2.10;;
21206;SDS011;10761;48.532;8.026;2023-07-13T06:51:40;5.57;;;1.70;;
21206;SDS011;10761;48.532;8.026;2023-07-13T06:54:05;5.38;;;2.10;;
21206;SDS011;10761;48.532;8.026;2023-07-13T06:56:31;9.38;;;2.08;;
21206;SDS011;10761;48.532;8.026;2023-07-13T06:58:56;7.28;;;2.22;;
21206;SDS011;10761;48.532;8.026;2023-07-13T07:01:22;10.70;;;2.30;;
21206;SDS011;10761;48.532;8.026;2023-07-13T07:03:48;6.25;;;2.25;;
21206;SDS011;10761;48.532;8.026;2023-07-13T07:06:17;5.45;;;2.08;;
21206;SDS011;10761;48.532;8.026;2023-07-13T07:08:44;5.05;;;1.80;;
21206;SDS011;10761;48.532;8.026;2023-07-13T07:11:14;6.75;;;2.60;;
21206;SDS011;10761;48.532;8.026;2023-07-13T07:13:48;8.02;;;1.95;;
21206;SDS011;10761;48.532;8.026;2023-07-13T07:16:14;7.80;;;2.22;;
21206;SDS011;10761;48.532;8.026;2023-07-13T07:18:40;7.63;;;2.13;;
21206;SDS011;10761;48.532;8.026;2023-07-13T07:21:05;5.70;;;2.10;;
21206;SDS011;10761;48.532;8.026;2023-07-13T07:23:31;6.00;;;2.03;;
21206;SDS011;10761;48.532;8.026;2023-07-13T07:25:57;4.95;;;1.80;;
21206;SDS011;10761;48.532;8.026;2023-07-13T07:28:23;5.75;;;1.83;;
21206;SDS011;10761;48.532;8.026;2023-07-13T07:30:49;5.18;;;1.73;;
21206;SDS011;10761;48.532;8.026;2023-07-13T07:33:17;6.85;;;2.25;;
21206;SDS011;10761;48.532;8.026;2023-07-13T07:35:43;8.23;;;1.73;;
21206;SDS011;10761;48.532;8.026;2023-07-13T07:38:08;4.57;;;1.83;;
21206;SDS011;10761;48.532;8.026;2023-07-13T07:40:38;4.68;;;1.40;;
21206;SDS011;10761;48.532;8.026;2023-07-13T07:43:05;6.07;;;1.60;;
21206;SDS011;10761;48.532;8.026;2023-07-13T07:45:35;6.75;;;1.58;;
21206;SDS011;10761;48.532;8.026;2023-07-13T07:48:02;5.93;;;1.50;;
21206;SDS011;10761;48.532;8.026;2023-07-13T07:50:29;5.10;;;1.75;;
21206;SDS011;10761;48.532;8.026;2023-07-13T07:52:55;4.07;;;1.50;;
21206;SDS011;10761;48.532;8.026;2023-07-13T07:55:21;5.75;;;1.48;;
21206;SDS011;10761;48.532;8.026;2023-07-13T07:57:47;5.93;;;1.55;;
21206;SDS011;10761;48.532;8.026;2023-07-13T08:00:14;3.13;;;1.40;;
21206;SDS011;10761;48.532;8.026;2023-07-13T08:02:40;6.55;;;1.40;;
21206;SDS011;10761;48.532;8.026;2023-07-13T08:05:06;4.40;;;1.55;;
21206;SDS011;10761;48.532;8.026;2023-07-13T08:07:33;5.45;;;1.50;;
21206;SDS011;10761;48.532;8.026;2023-07-13T08:09:59;4.80;;;1.40;;
21206;SDS011;10761;48.532;8.026;2023-07-13T08:12:24;3.60;;;1.50;;
21206;SDS011;10761;48.532;8.026;2023-07-13T08:14:50;7.68;;;1.50;;
21206;SDS011;10761;48.532;8.026;2023-07-13T08:17:21;3.97;;;1.50;;
21206;SDS011;10761;48.532;8.026;2023-07-13T08:19:47;9.10;;;1.50;;
21206;SDS011;10761;48.532;8.026;2023-07-13T08:22:13;4.43;;;1.50;;
21206;SDS011;10761;48.532;8.026;2023-07-13T08:24:38;2.65;;;1.30;;
21206;SDS011;10761;48.532;8.026;2023-07-13T08:27:04;10.27;;;1.55;;
21206;SDS011;10761;48.532;8.026;2023-07-13T08:29:30;4.50;;;1.27;;
21206;SDS011;10761;48.532;8.026;2023-07-13T08:31:58;4.55;;;1.40;;
21206;SDS011;10761;48.532;8.026;2023-07-13T08:34:24;6.47;;;1.33;;
21206;SDS011;10761;48.532;8.026;2023-07-13T08:36:49;5.45;;;1.20;;
21206;SDS011;10761;48.532;8.026;2023-07-13T08:39:15;2.53;;;1.30;;
21206;SDS011;10761;48.532;8.026;2023-07-13T08:41:41;3.90;;;1.10;;
21206;SDS011;10761;48.532;8.026;2023-07-13T08:44:10;2.17;;;0.90;;
21206;SDS011;10761;48.532;8.026;2023-07-13T08:46:51;3.78;;;1.40;;
21206;SDS011;10761;48.532;8.026;2023-07-13T08:49:21;2.88;;;1.10;;
21206;SDS011;10761;48.532;8.026;2023-07-13T08:51:53;7.45;;;1.27;;
21206;SDS011;10761;48.532;8.026;2023-07-13T08:54:49;5.50;;;1.50;;
21206;SDS011;10761;48.532;8.026;2023-07-13T08:57:21;5.18;;;1.30;;
21206;SDS011;10761;48.532;8.026;2023-07-13T08:59:55;4.60;;;1.17;;
21206;SDS011;10761;48.532;8.026;2023-07-13T09:02:27;2.13;;;1.08;;
21206;SDS011;10761;48.532;8.026;2023-07-13T09:05:04;3.25;;;1.20;;
21206;SDS011;10761;48.532;8.026;2023-07-13T09:07:50;4.82;;;1.13;;
21206;SDS011;10761;48.532;8.026;2023-07-13T09:10:45;3.08;;;1.10;;
21206;SDS011;10761;48.532;8.026;2023-07-13T09:13:30;4.30;;;1.20;;
21206;SDS011;10761;48.532;8.026;2023-07-13T09:16:08;6.82;;;1.45;;
21206;SDS011;10761;48.532;8.026;2023-07-13T09:18:41;6.28;;;1.20;;
21206;SDS011;10761;48.532;8.026;2023-07-13T09:23:41;3.83;;;1.20;;
21206;SDS011;10761;48.532;8.026;2023-07-13T09:26:19;4.93;;;1.42;;
21206;SDS011;10761;48.532;8.026;2023-07-13T09:28:47;6.22;;;1.45;;
21206;SDS011;10761;48.532;8.026;2023-07-13T09:31:28;4.70;;;1.33;;
21206;SDS011;10761;48.532;8.026;2023-07-13T09:34:01;4.22;;;1.20;;
21206;SDS011;10761;48.532;8.026;2023-07-13T09:36:30;4.57;;;1.30;;
21206;SDS011;10761;48.532;8.026;2023-07-13T09:42:17;6.60;;;1.00;;
21206;SDS011;10761;48.532;8.026;2023-07-13T09:44:58;5.57;;;1.42;;
21206;SDS011;10761;48.532;8.026;2023-07-13T09:47:28;3.88;;;1.30;;
21206;SDS011;10761;48.532;8.026;2023-07-13T09:50:03;6.55;;;1.20;;
21206;SDS011;10761;48.532;8.026;2023-07-13T09:52:39;5.97;;;1.38;;
21206;SDS011;10761;48.532;8.026;2023-07-13T09:57:52;5.72;;;1.65;;
21206;SDS011;10761;48.532;8.026;2023-07-13T10:00:23;3.78;;;1.30;;
21206;SDS011;10761;48.532;8.026;2023-07-13T10:02:57;3.40;;;1.15;;
21206;SDS011;10761;48.532;8.026;2023-07-13T10:05:37;5.00;;;1.05;;
21206;SDS011;10761;48.532;8.026;2023-07-13T10:08:04;4.82;;;1.20;;
21206;SDS011;10761;48.532;8.026;2023-07-13T10:10:32;9.30;;;1.52;;
21206;SDS011;10761;48.532;8.026;2023-07-13T10:12:58;6.40;;;1.75;;
21206;SDS011;10761;48.532;8.026;2023-07-13T10:15:24;3.95;;;1.27;;
21206;SDS011;10761;48.532;8.026;2023-07-13T10:17:51;5.22;;;1.27;;
21206;SDS011;10761;48.532;8.026;2023-07-13T10:20:18;6.75;;;1.40;;
21206;SDS011;10761;48.532;8.026;2023-07-13T10:22:48;5.35;;;1.30;;
21206;SDS011;10761;48.532;8.026;2023-07-13T10:25:20;4.25;;;1.20;;
21206;SDS011;10761;48.532;8.026;2023-07-13T10:27:47;4.70;;;1.63;;
21206;SDS011;10761;48.532;8.026;2023-07-13T10:33:04;8.30;;;1.20;;
21206;SDS011;10761;48.532;8.026;2023-07-13T10:35:37;4.63;;;1.30;;
21206;SDS011;10761;48.532;8.026;2023-07-13T10:38:06;6.88;;;1.30;;
21206;SDS011;10761;48.532;8.026;2023-07-13T10:40:40;6.13;;;1.00;;
21206;SDS011;10761;48.532;8.026;2023-07-13T10:43:20;4.85;;;1.52;;
21206;SDS011;10761;48.532;8.026;2023-07-13T10:45:50;5.30;;;1.25;;
21206;SDS011;10761;48.532;8.026;2023-07-13T10:48:16;3.22;;;1.20;;
21206;SDS011;10761;48.532;8.026;2023-07-13T10:50:44;5.35;;;1.25;;
21206;SDS011;10761;48.532;8.026;2023-07-13T10:58:21;6.90;;;1.30;;
21206;SDS011;10761;48.532;8.026;2023-07-13T11:01:07;6.05;;;1.45;;
21206;SDS011;10761;48.532;8.026;2023-07-13T11:03:34;4.03;;;1.17;;
21206;SDS011;10761;48.532;8.026;2023-07-13T11:08:59;7.68;;;1.40;;
21206;SDS011;10761;48.532;8.026;2023-07-13T11:11:33;8.03;;;1.40;;
21206;SDS011;10761;48.532;8.026;2023-07-13T11:14:02;2.72;;;1.20;;
21206;SDS011;10761;48.532;8.026;2023-07-13T11:16:37;2.10;;;1.02;;
21206;SDS011;10761;48.532;8.026;2023-07-13T11:24:52;4.90;;;1.13;;
21206;SDS011;10761;48.532;8.026;2023-07-13T11:30:06;3.45;;;1.30;;
21206;SDS011;10761;48.532;8.026;2023-07-13T11:32:44;5.45;;;1.20;;
21206;SDS011;10761;48.532;8.026;2023-07-13T11:35:23;8.75;;;1.25;;
21206;SDS011;10761;48.532;8.026;2023-07-13T11:37:52;4.93;;;1.23;;
21206;SDS011;10761;48.532;8.026;2023-07-13T11:40:18;14.55;;;2.03;;
21206;SDS011;10761;48.532;8.026;2023-07-13T11:42:47;7.90;;;1.58;;
21206;SDS011;10761;48.532;8.026;2023-07-13T11:45:20;6.50;;;1.40;;
21206;SDS011;10761;48.532;8.026;2023-07-13T11:47:48;6.30;;;1.15;;
21206;SDS011;10761;48.532;8.026;2023-07-13T11:50:21;5.82;;;1.42;;
21206;SDS011;10761;48.532;8.026;2023-07-13T11:52:48;5.10;;;1.35;;
21206;SDS011;10761;48.532;8.026;2023-07-13T11:55:18;5.72;;;1.50;;
21206;SDS011;10761;48.532;8.026;2023-07-13T11:57:50;7.22;;;1.60;;
21206;SDS011;10761;48.532;8.026;2023-07-13T12:00:22;5.28;;;1.67;;
21206;SDS011;10761;48.532;8.026;2023-07-13T12:02:52;2.88;;;1.20;;
21206;SDS011;10761;48.532;8.026;2023-07-13T12:05:20;5.38;;;1.13;;
21206;SDS011;10761;48.532;8.026;2023-07-13T12:07:46;4.75;;;1.20;;
21206;SDS011;10761;48.532;8.026;2023-07-13T12:10:19;5.43;;;1.38;;
21206;SDS011;10761;48.532;8.026;2023-07-13T12:12:55;5.78;;;1.13;;
21206;SDS011;10761;48.532;8.026;2023-07-13T12:15:23;5.47;;;1.63;;
21206;SDS011;10761;48.532;8.026;2023-07-13T12:17:53;11.52;;;1.80;;
21206;SDS011;10761;48.532;8.026;2023-07-13T12:20:25;3.05;;;1.20;;
21206;SDS011;10761;48.532;8.026;2023-07-13T12:22:54;5.93;;;1.38;;
21206;SDS011;10761;48.532;8.026;2023-07-13T12:25:20;6.03;;;1.50;;
21206;SDS011;10761;48.532;8.026;2023-07-13T12:27:48;2.70;;;1.00;;
21206;SDS011;10761;48.532;8.026;2023-07-13T12:30:25;8.05;;;1.10;;
21206;SDS011;10761;48.532;8.026;2023-07-13T12:33:12;4.37;;;1.50;;
21206;SDS011;10761;48.532;8.026;2023-07-13T12:35:42;3.58;;;1.20;;
21206;SDS011;10761;48.532;8.026;2023-07-13T12:38:12;5.70;;;1.50;;
21206;SDS011;10761;48.532;8.026;2023-07-13T12:40:38;6.45;;;1.65;;
21206;SDS011;10761;48.532;8.026;2023-07-13T12:43:05;5.53;;;1.30;;
21206;SDS011;10761;48.532;8.026;2023-07-13T12:45:37;5.90;;;1.20;;
21206;SDS011;10761;48.532;8.026;2023-07-13T12:48:05;5.35;;;1.15;;
21206;SDS011;10761;48.532;8.026;2023-07-13T12:50:41;7.78;;;1.40;;
21206;SDS011;10761;48.532;8.026;2023-07-13T12:53:18;3.50;;;0.95;;
21206;SDS011;10761;48.532;8.026;2023-07-13T12:55:54;2.38;;;1.00;;
21206;SDS011;10761;48.532;8.026;2023-07-13T12:58:28;4.25;;;1.10;;
21206;SDS011;10761;48.532;8.026;2023-07-13T13:00:58;5.07;;;1.33;;
21206;SDS011;10761;48.532;8.026;2023-07-13T13:06:20;2.85;;;1.30;;
21206;SDS011;10761;48.532;8.026;2023-07-13T13:08:55;12.20;;;1.67;;
21206;SDS011;10761;48.532;8.026;2023-07-13T13:11:23;3.50;;;1.17;;
21206;SDS011;10761;48.532;8.026;2023-07-13T13:13:51;6.90;;;1.27;;
21206;SDS011;10761;48.532;8.026;2023-07-13T13:18:56;4.60;;;1.33;;
21206;SDS011;10761;48.532;8.026;2023-07-13T13:21:23;3.40;;;1.30;;
21206;SDS011;10761;48.532;8.026;2023-07-13T13:23:50;3.10;;;1.30;;
21206;SDS011;10761;48.532;8.026;2023-07-13T13:26:23;5.43;;;1.50;;
21206;SDS011;10761;48.532;8.026;2023-07-13T13:28:49;7.75;;;1.35;;
21206;SDS011;10761;48.532;8.026;2023-07-13T13:31:15;6.80;;;1.10;;
21206;SDS011;10761;48.532;8.026;2023-07-13T13:33:41;4.70;;;1.40;;
21206;SDS011;10761;48.532;8.026;2023-07-13T13:36:16;4.40;;;1.30;;
21206;SDS011;10761;48.532;8.026;2023-07-13T13:38:44;9.35;;;1.50;;
21206;SDS011;10761;48.532;8.026;2023-07-13T13:41:11;13.25;;;1.88;;
21206;SDS011;10761;48.532;8.026;2023-07-13T13:43:38;8.25;;;1.48;;
21206;SDS011;10761;48.532;8.026;2023-07-13T13:46:08;1.58;;;1.15;;
21206;SDS011;10761;48.532;8.026;2023-07-13T13:48:41;3.22;;;1.50;;
21206;SDS011;10761;48.532;8.026;2023-07-13T13:51:25;5.28;;;1.70;;
21206;SDS011;10761;48.532;8.026;2023-07-13T13:53:51;3.25;;;1.27;;
21206;SDS011;10761;48.532;8.026;2023-07-13T13:56:18;5.10;;;1.20;;
21206;SDS011;10761;48.532;8.026;2023-07-13T13:58:44;3.33;;;1.35;;
21206;SDS011;10761;48.532;8.026;2023-07-13T14:01:16;4.90;;;1.40;;
21206;SDS011;10761;48.532;8.026;2023-07-13T14:03:47;2.17;;;1.17;;
21206;SDS011;10761;48.532;8.026;2023-07-13T14:06:18;4.40;;;1.40;;
21206;SDS011;10761;48.532;8.026;2023-07-13T14:08:44;4.93;;;1.50;;
21206;SDS011;10761;48.532;8.026;2023-07-13T14:11:14;4.03;;;1.10;;
21206;SDS011;10761;48.532;8.026;2023-07-13T14:13:42;10.35;;;1.30;;
21206;SDS011;10761;48.532;8.026;2023-07-13T14:16:13;11.10;;;1.70;;
21206;SDS011;10761;48.532;8.026;2023-07-13T14:18:44;5.13;;;1.23;;
21206;SDS011;10761;48.532;8.026;2023-07-13T14:21:14;6.63;;;1.63;;
21206;SDS011;10761;48.532;8.026;2023-07-13T14:23:42;3.47;;;1.00;;
21206;SDS011;10761;48.532;8.026;2023-07-13T14:26:16;3.45;;;1.10;;
21206;SDS011;10761;48.532;8.026;2023-07-13T14:28:44;3.03;;;1.00;;
21206;SDS011;10761;48.532;8.026;2023-07-13T14:31:13;2.90;;;1.02;;
21206;SDS011;10761;48.532;8.026;2023-07-13T14:33:40;7.32;;;1.15;;
21206;SDS011;10761;48.532;8.026;2023-07-13T14:36:48;1.50;;;0.90;;
21206;SDS011;10761;48.532;8.026;2023-07-13T14:38:56;4.20;;;1.10;;
21206;SDS011;10761;48.532;8.026;2023-07-13T14:41:23;3.08;;;1.17;;
21206;SDS011;10761;48.532;8.026;2023-07-13T14:43:49;6.10;;;1.10;;
21206;SDS011;10761;48.532;8.026;2023-07-13T14:46:31;3.55;;;1.20;;
21206;SDS011;10761;48.532;8.026;2023-07-13T14:49:02;4.45;;;1.10;;
21206;SDS011;10761;48.532;8.026;2023-07-13T14:51:30;4.93;;;1.10;;
21206;SDS011;10761;48.532;8.026;2023-07-13T14:53:57;4.88;;;1.30;;
21206;SDS011;10761;48.532;8.026;2023-07-13T14:56:24;5.75;;;1.33;;
21206;SDS011;10761;48.532;8.026;2023-07-13T14:58:50;3.33;;;1.40;;
21206;SDS011;10761;48.532;8.026;2023-07-13T15:01:18;3.25;;;1.35;;
21206;SDS011;10761;48.532;8.026;2023-07-13T15:03:45;3.58;;;1.38;;
21206;SDS011;10761;48.532;8.026;2023-07-13T15:06:12;3.40;;;1.27;;
21206;SDS011;10761;48.532;8.026;2023-07-13T15:08:39;4.05;;;1.20;;
21206;SDS011;10761;48.532;8.026;2023-07-13T15:11:08;5.13;;;1.20;;
21206;SDS011;10761;48.532;8.026;2023-07-13T15:13:37;7.22;;;1.30;;
21206;SDS011;10761;48.532;8.026;2023-07-13T15:19:01;5.88;;;1.10;;
21206;SDS011;10761;48.532;8.026;2023-07-13T15:21:27;5.43;;;1.50;;
21206;SDS011;10761;48.532;8.026;2023-07-13T15:23:59;4.68;;;1.20;;
21206;SDS011;10761;48.532;8.026;2023-07-13T15:26:25;2.45;;;1.20;;
21206;SDS011;10761;48.532;8.026;2023-07-13T15:28:51;6.97;;;1.20;;
21206;SDS011;10761;48.532;8.026;2023-07-13T15:33:47;2.58;;;1.15;;